Ambrosia Lake, New Mexico
Current Conditions -  °F | °C
As of 5:56 PM on Friday 24 Oct 2014 (Local Time) from KGNT Reporting Station
Clear Clear  
Wind Chill: 73°   Ceiling: Unl
Heat Index: 73°   Visibility: 10mi
Dew Point: 21°   Wind: 8mph
Humidity: 14%   Direction: 10°N
Pressure: 30.32"   Gusts: NA
Location:  35.2644°N, 107.733°W
Report Text: KGNT 242356Z AUTO 01007KT 10SM CLR 23/M06 A3032 RMK AO2
Loading
Personal Weather Stations






























Interactive Weather Map New forecast layout! Learn more

10-Day Weather Forecast

Advertisements
Track Severe Weather on mobile